Wright Patterson Air Force Base Dayton US
ICAO: KFFO
IATA: FFO
Category: Large
Scheduled Services: No

Elevation: 823 ft
TransAlt. 18000 ft.

Airport Communications:
DAYTON APP/DEP:118.85
ATIS:124.475
GND:121.8
PMSV METRO:34.46
445AW AFRC COMD POST:34.94
PTD:122.85
PATTERSON TWR:126.9

KFFO Zoom In..

If you have problems with the map follow the link
https://www.worldairports.se/pages/airport.php?
ICAO=KFFO

Runways:

(A) RW 05L length 12600 ft width 300 ft
ILS 109.70 / hdg 53

(B) RW 05R length 7000 ft width 150 ft
---- / hdg 53

(C) RW 23L length 7000 ft width 150 ft
---- / hdg 233

(D) RW 23R length 12600 ft width 300 ft
ILS 109.70 / hdg 233

Location; KFFO
Day. 18 / Time. 01.56 Zulu
* Altimeter: 29.79
* Temperature: -01° c. -30.2°f.
* Wind from: 270° Speed 04 kn.
Dewpoint: -02° c.
Visibility: 4 Statute Miles.
Clouds: Overcast 600 ft.
Conditions: Mist.

KFFO 180156Z 27004KT 4SM BR OVC006 M01/M02 A2979 RMK AO2A CIG 005 RWY23R SLP100 T10071018


Wind From 270°
Speed 04 kn.

 
 
jpsmedia.com for Web Design worldairports.se 2019   terms of use